createdAt,value
2022-08-07T00:01:44.394Z,19.08
2022-08-07T00:04:11.374Z,15.00
2022-08-07T00:06:51.372Z,17.58
2022-08-07T00:09:22.423Z,18.90
2022-08-07T00:11:55.877Z,21.73
2022-08-07T00:14:31.236Z,22.30
2022-08-07T00:17:01.585Z,16.00
2022-08-07T00:19:59.567Z,16.88
2022-08-07T00:22:24.547Z,17.20
2022-08-07T00:25:07.045Z,17.52
2022-08-07T00:27:53.188Z,22.08
2022-08-07T00:30:27.303Z,18.92
2022-08-07T00:32:58.350Z,20.20
2022-08-07T00:35:29.833Z,21.58
2022-08-07T00:37:59.950Z,22.63
2022-08-07T00:40:36.442Z,22.88
2022-08-07T00:44:00.229Z,18.25
2022-08-07T00:46:02.931Z,24.45
2022-08-07T00:48:32.890Z,21.90
2022-08-07T00:51:02.928Z,22.85
2022-08-07T00:53:38.823Z,22.25
2022-08-07T00:56:19.165Z,16.85
2022-08-07T00:58:50.224Z,23.08
2022-08-07T01:01:21.495Z,21.30
2022-08-07T01:03:55.546Z,21.45
2022-08-07T01:06:28.525Z,23.02
2022-08-07T01:09:00.607Z,19.77
2022-08-07T01:12:23.722Z,22.77
2022-08-07T01:14:28.354Z,22.65
2022-08-07T01:16:59.312Z,17.75
2022-08-07T01:19:32.309Z,20.33
2022-08-07T01:22:08.798Z,24.42
2022-08-07T01:24:43.308Z,21.95
2022-08-07T01:27:19.867Z,19.80
2022-08-07T01:29:51.868Z,19.35
2022-08-07T01:32:22.676Z,20.52
2022-08-07T01:34:55.863Z,22.38
2022-08-07T01:37:29.535Z,22.65
2022-08-07T01:40:07.007Z,21.77
2022-08-07T01:42:58.533Z,21.83
2022-08-07T01:45:36.859Z,22.80
2022-08-07T01:48:19.928Z,20.30
2022-08-07T01:51:24.243Z,18.83
2022-08-07T01:54:09.621Z,18.90
2022-08-07T01:56:51.077Z,19.52
2022-08-07T01:59:30.913Z,21.25
2022-08-07T02:02:07.047Z,21.33
2022-08-07T02:04:52.538Z,21.35
2022-08-07T02:07:36.228Z,17.83
2022-08-07T02:10:28.042Z,18.00
2022-08-07T02:13:01.182Z,21.45
2022-08-07T02:15:39.863Z,20.90
2022-08-07T02:18:13.357Z,21.27
2022-08-07T02:20:48.713Z,23.65
2022-08-07T02:23:24.174Z,20.13
2022-08-07T02:26:31.253Z,21.20
2022-08-07T02:28:49.224Z,17.10
2022-08-07T02:31:29.169Z,19.15
2022-08-07T02:34:02.778Z,17.73
2022-08-07T02:36:34.368Z,18.02
2022-08-07T02:39:17.069Z,16.50
2022-08-07T02:42:10.354Z,14.63
2022-08-07T02:44:49.893Z,14.52
2022-08-07T02:47:23.980Z,22.13
2022-08-07T02:50:05.401Z,18.25
2022-08-07T02:52:40.630Z,15.05
2022-08-07T02:55:28.359Z,15.45
2022-08-07T02:58:14.759Z,16.75
2022-08-07T03:00:46.795Z,14.48
2022-08-07T03:03:21.086Z,15.45
2022-08-07T03:05:55.413Z,14.93
2022-08-07T03:08:29.200Z,18.17
2022-08-07T03:11:01.894Z,13.40
2022-08-07T03:13:49.510Z,14.43
2022-08-07T03:16:23.083Z,15.98
2022-08-07T03:18:58.296Z,16.15
2022-08-07T03:21:28.089Z,17.50
2022-08-07T03:24:21.159Z,15.20
2022-08-07T03:26:59.132Z,15.88
2022-08-07T03:29:38.804Z,14.23
2022-08-07T03:32:18.023Z,15.90
2022-08-07T03:35:16.746Z,13.82
2022-08-07T03:37:46.122Z,15.82
2022-08-07T03:40:30.893Z,12.10
2022-08-07T03:43:10.031Z,13.77
2022-08-07T03:45:48.587Z,15.65
2022-08-07T03:48:22.699Z,13.02
2022-08-07T03:50:57.974Z,11.20
2022-08-07T03:54:05.742Z,12.05
2022-08-07T03:56:33.031Z,14.93
2022-08-07T03:59:09.969Z,12.07
2022-08-07T04:01:50.962Z,14.07
2022-08-07T04:04:24.512Z,11.20
2022-08-07T04:07:00.153Z,10.32
2022-08-07T04:09:45.226Z,11.98
2022-08-07T04:12:28.250Z,15.35
2022-08-07T04:15:00.819Z,13.40
2022-08-07T04:18:57.225Z,12.07
2022-08-07T04:20:25.318Z,10.65
2022-08-07T04:23:01.405Z,11.63
2022-08-07T04:25:39.341Z,10.20
2022-08-07T04:28:13.293Z,7.10
2022-08-07T04:30:55.427Z,9.68
2022-08-07T04:33:36.151Z,8.55
2022-08-07T04:36:08.829Z,10.27
2022-08-07T04:38:40.654Z,8.18
2022-08-07T04:41:19.064Z,11.35
2022-08-07T04:44:14.471Z,9.32
2022-08-07T04:46:59.594Z,9.25
2022-08-07T04:49:57.789Z,9.45
2022-08-07T04:52:46.808Z,10.93
2022-08-07T04:58:13.820Z,9.90
2022-08-07T04:58:34.917Z,7.05
2022-08-07T05:01:19.143Z,11.00
2022-08-07T05:04:06.375Z,9.48
2022-08-07T05:06:51.755Z,12.25
2022-08-07T05:09:42.934Z,9.27
2022-08-07T05:12:27.267Z,8.10
2022-08-07T05:18:08.714Z,7.15
2022-08-07T05:20:43.097Z,7.47
2022-08-07T05:23:19.130Z,8.65
2022-08-07T05:26:11.505Z,12.13
2022-08-07T05:28:46.637Z,16.05
2022-08-07T05:31:24.939Z,10.27
2022-08-07T05:34:05.810Z,9.60
2022-08-07T05:36:44.666Z,15.02
2022-08-07T05:40:06.439Z,9.77
2022-08-07T05:42:34.860Z,11.02
2022-08-07T05:45:26.088Z,10.30
2022-08-07T05:48:06.338Z,7.50
2022-08-07T05:50:48.229Z,9.65
2022-08-07T05:54:13.790Z,12.43
2022-08-07T05:56:13.302Z,9.63
2022-08-07T05:58:52.815Z,8.43
2022-08-07T06:01:34.928Z,8.50
2022-08-07T06:04:09.641Z,11.75
2022-08-07T06:06:46.210Z,9.95
2022-08-07T06:09:18.892Z,11.20
2022-08-07T06:11:52.112Z,10.88
2022-08-07T06:14:30.222Z,6.00
2022-08-07T06:17:07.023Z,8.63
2022-08-07T06:19:52.006Z,7.57
2022-08-07T06:22:36.872Z,8.38
2022-08-07T06:25:21.795Z,10.07
2022-08-07T06:28:03.236Z,5.85
2022-08-07T06:30:37.950Z,12.90
2022-08-07T06:33:16.913Z,8.52
2022-08-07T06:38:58.540Z,11.93
2022-08-07T06:42:03.055Z,8.40
2022-08-07T06:44:51.430Z,11.48
2022-08-07T06:47:21.523Z,7.30
2022-08-07T06:49:58.559Z,5.22
2022-08-07T06:52:37.235Z,6.57
2022-08-07T06:55:33.475Z,8.90
2022-08-07T06:58:10.179Z,6.88
2022-08-07T07:00:52.739Z,7.32
2022-08-07T07:03:39.541Z,12.35
2022-08-07T07:06:11.004Z,10.75
2022-08-07T07:08:46.635Z,8.40
2022-08-07T07:12:08.622Z,5.72
2022-08-07T07:14:08.507Z,7.35
2022-08-07T07:16:49.790Z,7.23
2022-08-07T07:19:56.374Z,10.32
2022-08-07T07:22:35.970Z,8.73
2022-08-07T07:26:32.401Z,5.90
2022-08-07T07:28:03.386Z,8.15
2022-08-07T07:30:40.327Z,10.95
2022-08-07T07:33:13.853Z,15.98
2022-08-07T07:36:04.150Z,11.27
2022-08-07T07:38:35.887Z,5.32
2022-08-07T07:41:09.294Z,11.00
2022-08-07T07:44:14.669Z,8.20
2022-08-07T07:46:55.176Z,12.57
2022-08-07T07:50:35.613Z,12.02
2022-08-07T07:52:19.553Z,7.43
2022-08-07T07:54:51.456Z,6.40
2022-08-07T07:57:43.875Z,4.45
2022-08-07T08:00:29.192Z,5.53
2022-08-07T08:03:05.583Z,7.68
2022-08-07T08:05:51.156Z,5.95
2022-08-07T08:08:35.314Z,8.77
2022-08-07T08:11:16.279Z,8.75
2022-08-07T08:13:54.680Z,6.68
2022-08-07T08:16:35.617Z,9.50
2022-08-07T08:19:09.741Z,14.85
2022-08-07T08:22:08.076Z,7.20
2022-08-07T08:25:18.616Z,8.45
2022-08-07T08:27:57.492Z,8.95
2022-08-07T08:30:42.694Z,8.45
2022-08-07T08:33:21.915Z,9.00
2022-08-07T08:35:55.929Z,5.93
2022-08-07T08:38:40.424Z,11.88
2022-08-07T08:41:18.776Z,7.40
2022-08-07T08:43:59.300Z,7.95
2022-08-07T08:46:40.605Z,5.97
2022-08-07T08:49:32.748Z,9.40
2022-08-07T08:52:14.437Z,10.98
2022-08-07T08:55:07.741Z,5.93
2022-08-07T08:57:41.401Z,8.63
2022-08-07T09:00:12.345Z,5.47
2022-08-07T09:02:53.067Z,10.63
2022-08-07T09:05:37.818Z,4.30
2022-08-07T09:08:28.613Z,6.57
2022-08-07T09:11:14.028Z,6.50
2022-08-07T09:14:09.657Z,5.82
2022-08-07T09:16:49.894Z,6.30
2022-08-07T09:19:53.541Z,4.82
2022-08-07T09:24:28.914Z,5.90
2022-08-07T09:25:27.943Z,11.85
2022-08-07T09:28:06.158Z,7.63
2022-08-07T09:31:03.003Z,8.18
2022-08-07T09:33:57.958Z,6.10
2022-08-07T09:39:53.902Z,7.57
2022-08-07T09:42:33.280Z,5.47
2022-08-07T09:47:55.030Z,6.93
2022-08-07T09:48:19.084Z,6.97
2022-08-07T09:51:14.562Z,11.02
2022-08-07T09:54:02.344Z,5.25
2022-08-07T09:56:53.525Z,5.32
2022-08-07T10:00:01.007Z,4.63
2022-08-07T10:04:07.151Z,5.28
2022-08-07T10:06:42.166Z,9.48
2022-08-07T10:10:00.621Z,6.57
2022-08-07T10:12:53.179Z,7.82
2022-08-07T10:15:56.123Z,9.65
2022-08-07T10:22:14.161Z,5.85
2022-08-07T10:24:57.605Z,6.10
2022-08-07T10:30:20.074Z,4.70
2022-08-07T10:34:06.061Z,7.15
2022-08-07T10:36:30.277Z,7.78
2022-08-07T10:39:20.009Z,9.32
2022-08-07T10:42:09.335Z,7.75
2022-08-07T10:45:01.433Z,11.40
2022-08-07T10:47:53.887Z,4.15
2022-08-07T10:50:28.886Z,5.25
2022-08-07T10:53:09.036Z,6.88
2022-08-07T10:55:50.410Z,3.88
2022-08-07T10:58:40.314Z,5.85
2022-08-07T11:01:23.945Z,5.13
2022-08-07T11:04:23.334Z,3.58
2022-08-07T11:07:02.031Z,6.60
2022-08-07T11:10:09.293Z,6.13
2022-08-07T11:12:35.534Z,5.03
2022-08-07T11:15:14.547Z,3.55
2022-08-07T11:17:53.802Z,5.80
2022-08-07T11:20:27.592Z,7.88
2022-08-07T11:23:04.350Z,7.43
2022-08-07T11:25:48.034Z,5.20
2022-08-07T11:28:26.593Z,3.20
2022-08-07T11:31:00.955Z,2.97
2022-08-07T11:36:39.367Z,4.38
2022-08-07T11:39:20.635Z,7.78
2022-08-07T11:42:03.186Z,5.55
2022-08-07T11:44:52.760Z,3.15
2022-08-07T11:47:56.450Z,4.13
2022-08-07T11:50:44.657Z,3.65
2022-08-07T11:53:43.371Z,5.90
2022-08-07T11:56:53.044Z,11.55
2022-08-07T12:00:12.226Z,12.07
2022-08-07T12:03:44.698Z,6.95
2022-08-07T12:06:39.545Z,11.25
2022-08-07T12:09:16.454Z,10.30
2022-08-07T12:12:08.764Z,12.55
2022-08-07T12:15:01.132Z,14.05
2022-08-07T12:17:58.556Z,12.68
2022-08-07T12:20:34.786Z,8.60
2022-08-07T12:24:07.707Z,8.75
2022-08-07T12:26:46.097Z,9.90
2022-08-07T12:29:37.887Z,8.43
2022-08-07T12:32:17.105Z,9.57
2022-08-07T12:34:55.846Z,9.93
2022-08-07T12:37:28.495Z,8.52
2022-08-07T12:40:46.618Z,6.93
2022-08-07T12:44:01.486Z,10.38
2022-08-07T12:46:15.913Z,7.22
2022-08-07T12:49:10.262Z,8.57
2022-08-07T12:52:12.023Z,7.97
2022-08-07T12:54:55.003Z,6.22
2022-08-07T12:58:00.283Z,6.80
2022-08-07T13:00:32.759Z,6.95
2022-08-07T13:03:55.059Z,5.43
2022-08-07T13:07:00.520Z,5.03
2022-08-07T13:10:28.620Z,5.38
2022-08-07T13:12:52.278Z,5.22
2022-08-07T13:15:34.067Z,7.70
2022-08-07T13:18:28.269Z,8.52
2022-08-07T13:21:07.765Z,7.55
2022-08-07T13:24:01.441Z,4.15
2022-08-07T13:26:41.790Z,4.32
2022-08-07T13:29:20.901Z,5.07
2022-08-07T13:31:57.274Z,6.55
2022-08-07T13:34:44.786Z,5.22
2022-08-07T13:37:24.554Z,7.00
2022-08-07T13:40:35.061Z,4.43
2022-08-07T13:43:00.832Z,4.82
2022-08-07T13:46:12.829Z,5.35
2022-08-07T13:48:34.239Z,5.38
2022-08-07T13:51:28.547Z,3.97
2022-08-07T13:54:00.853Z,5.22
2022-08-07T13:56:41.133Z,4.57
2022-08-07T13:59:25.606Z,5.80
2022-08-07T14:02:07.731Z,5.20
2022-08-07T14:04:50.107Z,3.65
2022-08-07T14:07:27.987Z,7.57
2022-08-07T14:10:17.450Z,4.65
2022-08-07T14:12:55.818Z,3.83
2022-08-07T14:15:32.132Z,3.92
2022-08-07T14:18:24.080Z,3.55
2022-08-07T14:21:08.236Z,2.55
2022-08-07T14:24:00.538Z,2.88
2022-08-07T14:26:37.342Z,3.88
2022-08-07T14:30:06.413Z,4.75
2022-08-07T14:32:04.915Z,4.05
2022-08-07T14:34:46.064Z,5.20
2022-08-07T14:37:19.065Z,3.47
2022-08-07T14:40:15.753Z,5.53
2022-08-07T14:43:55.594Z,5.60
2022-08-07T14:45:46.617Z,6.15
2022-08-07T14:48:22.317Z,4.90
2022-08-07T14:51:00.595Z,3.53
2022-08-07T14:54:08.558Z,4.87
2022-08-07T14:56:30.157Z,3.67
2022-08-07T14:59:13.829Z,4.65
2022-08-07T15:01:58.448Z,4.88
2022-08-07T15:04:28.888Z,4.72
2022-08-07T15:07:00.812Z,6.35
2022-08-07T15:09:57.264Z,6.53
2022-08-07T15:15:23.770Z,3.45
2022-08-07T15:18:02.597Z,4.70
2022-08-07T15:20:55.497Z,3.97
2022-08-07T15:25:02.042Z,4.53
2022-08-07T15:26:28.627Z,6.10
2022-08-07T15:32:01.595Z,3.88
2022-08-07T15:34:37.868Z,4.43
2022-08-07T15:37:27.421Z,6.40
2022-08-07T15:40:01.102Z,5.78
2022-08-07T15:42:51.840Z,3.80
2022-08-07T15:45:55.858Z,4.90
2022-08-07T15:48:37.469Z,3.72
2022-08-07T15:54:19.407Z,4.82
2022-08-07T15:56:50.388Z,5.00
2022-08-07T15:59:39.467Z,4.63
2022-08-07T16:02:15.675Z,5.45
2022-08-07T16:04:45.832Z,7.50
2022-08-07T16:08:30.619Z,10.55
2022-08-07T16:10:14.876Z,6.88
2022-08-07T16:13:04.661Z,5.38
2022-08-07T16:15:58.976Z,4.93
2022-08-07T16:18:50.779Z,5.43
2022-08-07T16:21:56.990Z,7.07
2022-08-07T16:24:34.938Z,9.02
2022-08-07T16:27:20.890Z,11.02
2022-08-07T16:30:30.171Z,7.80
2022-08-07T16:33:00.442Z,8.70
2022-08-07T16:36:03.001Z,9.35
2022-08-07T16:39:01.016Z,8.85
2022-08-07T16:41:54.308Z,7.80
2022-08-07T16:45:03.846Z,9.65
2022-08-07T16:47:56.856Z,9.38
2022-08-07T16:50:52.557Z,6.93
2022-08-07T16:56:57.218Z,8.00
2022-08-07T16:59:46.414Z,7.68
2022-08-07T17:02:52.267Z,10.10
2022-08-07T17:06:28.739Z,6.80
2022-08-07T17:09:08.835Z,6.78
2022-08-07T17:12:03.921Z,8.15
2022-08-07T17:14:45.335Z,7.10
2022-08-07T17:17:46.612Z,8.52
2022-08-07T17:20:30.003Z,7.75
2022-08-07T17:23:08.633Z,10.98
2022-08-07T17:25:54.732Z,7.55
2022-08-07T17:28:38.139Z,5.82
2022-08-07T17:31:17.085Z,9.00
2022-08-07T17:34:18.159Z,9.27
2022-08-07T17:39:58.892Z,10.80
2022-08-07T17:42:59.483Z,10.40
2022-08-07T17:45:35.334Z,9.30
2022-08-07T17:50:54.478Z,10.60
2022-08-07T17:54:01.474Z,7.70
2022-08-07T17:56:28.848Z,7.45
2022-08-07T17:59:10.713Z,13.43
2022-08-07T18:01:51.753Z,7.38
2022-08-07T18:04:36.016Z,7.30
2022-08-07T18:07:20.898Z,7.38
2022-08-07T18:10:07.369Z,7.03
2022-08-07T18:13:06.875Z,9.13
2022-08-07T18:15:57.125Z,8.80
2022-08-07T18:18:44.995Z,8.60
2022-08-07T18:21:51.637Z,7.32
2022-08-07T18:24:28.509Z,7.05
2022-08-07T18:27:38.414Z,11.05
2022-08-07T18:30:30.807Z,7.07
2022-08-07T18:33:37.851Z,8.15
2022-08-07T18:36:18.428Z,8.57
2022-08-07T18:40:09.058Z,8.68
2022-08-07T18:42:18.926Z,7.28
2022-08-07T18:48:01.560Z,9.32
2022-08-07T18:50:55.788Z,9.07
2022-08-07T18:53:39.923Z,8.80
2022-08-07T18:56:21.161Z,8.40
2022-08-07T18:59:47.342Z,6.55
2022-08-07T19:02:34.051Z,9.73
2022-08-07T19:05:24.734Z,9.15
2022-08-07T19:08:03.933Z,8.63
2022-08-07T19:10:51.955Z,7.88
2022-08-07T19:13:27.700Z,8.75
2022-08-07T19:16:43.129Z,10.88
2022-08-07T19:19:06.105Z,7.68
2022-08-07T19:21:56.088Z,9.75
2022-08-07T19:24:43.325Z,10.05
2022-08-07T19:28:31.057Z,8.18
2022-08-07T19:30:55.555Z,6.72
2022-08-07T19:33:12.775Z,6.13
2022-08-07T19:35:45.253Z,6.70
2022-08-07T19:38:18.846Z,9.63
2022-08-07T19:40:52.480Z,7.85
2022-08-07T19:43:49.000Z,7.70
2022-08-07T19:46:35.608Z,9.88
2022-08-07T19:49:08.419Z,9.77
2022-08-07T19:51:52.161Z,10.27
2022-08-07T19:54:35.150Z,8.07
2022-08-07T19:58:02.300Z,8.93
2022-08-07T20:00:08.887Z,11.40
2022-08-07T20:02:52.323Z,12.48
2022-08-07T20:05:27.813Z,14.73
2022-08-07T20:08:01.576Z,7.05
2022-08-07T20:10:51.945Z,7.13
2022-08-07T20:13:41.791Z,8.55
2022-08-07T20:16:15.836Z,6.97
2022-08-07T20:19:12.089Z,5.70
2022-08-07T20:21:47.672Z,7.75
2022-08-07T20:24:23.247Z,9.57
2022-08-07T20:26:56.471Z,7.72
2022-08-07T20:29:48.093Z,7.25
2022-08-07T20:32:25.557Z,7.38
2022-08-07T20:35:01.442Z,10.10
2022-08-07T20:37:57.666Z,7.60
2022-08-07T20:40:34.288Z,6.82
2022-08-07T20:46:26.873Z,8.95
2022-08-07T20:48:38.615Z,8.68
2022-08-07T20:51:29.990Z,8.13
2022-08-07T20:54:07.163Z,6.13
2022-08-07T20:56:46.030Z,7.80
2022-08-07T20:59:27.225Z,9.02
2022-08-07T21:02:34.218Z,5.65
2022-08-07T21:05:10.190Z,8.60
2022-08-07T21:07:49.735Z,9.88
2022-08-07T21:10:29.449Z,11.30
2022-08-07T21:13:04.499Z,11.63
2022-08-07T21:15:47.856Z,8.18
2022-08-07T21:18:33.443Z,6.45
2022-08-07T21:21:04.864Z,8.50
2022-08-07T21:23:50.466Z,11.45
2022-08-07T21:26:30.743Z,9.63
2022-08-07T21:29:06.797Z,11.05
2022-08-07T21:32:43.747Z,9.90
2022-08-07T21:34:46.344Z,9.85
2022-08-07T21:37:22.946Z,10.48
2022-08-07T21:39:59.426Z,10.80
2022-08-07T21:42:45.966Z,9.40
2022-08-07T21:46:08.452Z,9.95
2022-08-07T21:48:32.464Z,10.98
2022-08-07T21:51:20.401Z,12.23
2022-08-07T21:53:56.436Z,10.07
2022-08-07T21:56:47.169Z,10.57
2022-08-07T22:00:03.035Z,10.52
2022-08-07T22:02:32.199Z,14.80
2022-08-07T22:05:04.441Z,13.63
2022-08-07T22:07:48.643Z,13.10
2022-08-07T22:10:32.781Z,12.48
2022-08-07T22:13:13.758Z,14.38
2022-08-07T22:16:39.780Z,15.73
2022-08-07T22:18:43.305Z,14.20
2022-08-07T22:21:20.484Z,14.57
2022-08-07T22:23:56.150Z,12.38
2022-08-07T22:26:30.682Z,15.65
2022-08-07T22:29:14.011Z,16.48
2022-08-07T22:32:00.305Z,15.18
2022-08-07T22:34:52.949Z,14.85
2022-08-07T22:38:03.486Z,15.85
2022-08-07T22:40:27.929Z,14.30
2022-08-07T22:43:09.419Z,16.58
2022-08-07T22:46:21.847Z,12.95
2022-08-07T22:49:07.705Z,10.38
2022-08-07T22:52:07.004Z,10.82
2022-08-07T22:55:17.203Z,11.73
2022-08-07T22:58:27.685Z,12.20
2022-08-07T23:01:16.500Z,13.02
2022-08-07T23:03:58.278Z,9.05
2022-08-07T23:06:50.005Z,10.25
2022-08-07T23:10:03.848Z,11.93
2022-08-07T23:12:37.987Z,9.82
2022-08-07T23:16:06.063Z,9.90
2022-08-07T23:18:25.997Z,13.50
2022-08-07T23:21:20.953Z,10.80
2022-08-07T23:24:20.201Z,11.63
2022-08-07T23:27:14.624Z,15.32
2022-08-07T23:30:39.125Z,11.93
2022-08-07T23:34:36.191Z,12.38
2022-08-07T23:36:17.312Z,11.65
2022-08-07T23:39:08.565Z,11.05
2022-08-07T23:42:01.677Z,11.05
2022-08-07T23:45:15.086Z,12.32
2022-08-07T23:48:17.043Z,12.05
2022-08-07T23:50:54.508Z,10.35
2022-08-07T23:53:51.202Z,10.07
2022-08-07T23:56:28.064Z,7.57
